createdAt,value
2018-05-31T00:02:20.264Z,51.30
2018-05-31T00:04:59.052Z,59.50
2018-05-31T00:07:44.409Z,46.97
2018-05-31T00:10:14.781Z,41.73
2018-05-31T00:12:45.589Z,43.50
2018-05-31T00:15:15.543Z,78.23
2018-05-31T00:17:45.194Z,52.83
2018-05-31T00:20:17.065Z,46.83
2018-05-31T00:22:47.027Z,43.40
2018-05-31T00:25:25.413Z,66.23
2018-05-31T00:27:55.298Z,48.87
2018-05-31T00:30:26.838Z,47.47
2018-05-31T00:33:11.606Z,35.53
2018-05-31T00:35:48.673Z,28.13
2018-05-31T00:38:19.674Z,42.03
2018-05-31T00:40:50.765Z,25.97
2018-05-31T00:43:21.419Z,39.67
2018-05-31T00:45:51.221Z,22.67
2018-05-31T00:48:21.473Z,26.47
2018-05-31T00:50:52.259Z,47.60
2018-05-31T00:53:25.016Z,30.00
2018-05-31T00:56:17.514Z,24.77
2018-05-31T00:58:49.563Z,34.43
2018-05-31T01:01:19.063Z,30.87
2018-05-31T01:03:49.391Z,21.77
2018-05-31T01:06:19.371Z,31.17
2018-05-31T01:08:49.942Z,29.53
2018-05-31T01:11:19.929Z,24.00
2018-05-31T01:13:50.583Z,23.00
2018-05-31T01:16:22.124Z,44.47
2018-05-31T01:18:54.687Z,36.97
2018-05-31T01:21:25.382Z,26.33
2018-05-31T01:23:56.926Z,66.93
2018-05-31T01:29:48.585Z,37.03
2018-05-31T01:32:18.332Z,28.43
2018-05-31T01:34:50.460Z,26.73
2018-05-31T01:37:21.226Z,44.00
2018-05-31T01:39:52.494Z,24.57
2018-05-31T01:42:28.104Z,30.63
2018-05-31T01:44:58.443Z,33.87
2018-05-31T01:47:29.886Z,24.03
2018-05-31T01:50:00.955Z,64.03
2018-05-31T01:52:35.097Z,31.10
2018-05-31T01:55:11.370Z,36.83
2018-05-31T01:57:44.869Z,35.17
2018-05-31T02:00:16.894Z,25.17
2018-05-31T02:02:48.523Z,26.33
2018-05-31T02:05:21.644Z,42.37
2018-05-31T02:07:51.956Z,32.13
2018-05-31T02:10:21.432Z,28.63
2018-05-31T02:12:52.611Z,27.53
2018-05-31T02:15:22.891Z,32.20
2018-05-31T02:18:01.302Z,31.33
2018-05-31T02:20:33.887Z,31.97
2018-05-31T02:23:04.535Z,40.27
2018-05-31T02:25:37.905Z,20.00
2018-05-31T02:28:12.947Z,26.20
2018-05-31T02:30:47.986Z,34.23
2018-05-31T02:33:18.281Z,23.87
2018-05-31T02:35:51.823Z,27.40
2018-05-31T02:38:23.609Z,27.27
2018-05-31T02:40:53.471Z,22.10
2018-05-31T02:43:29.651Z,29.10
2018-05-31T02:46:28.066Z,20.90
2018-05-31T02:49:02.968Z,32.97
2018-05-31T02:51:33.538Z,17.73
2018-05-31T02:54:03.091Z,25.77
2018-05-31T02:56:33.500Z,14.23
2018-05-31T02:59:03.620Z,26.10
2018-05-31T03:01:33.849Z,19.47
2018-05-31T03:04:03.507Z,17.43
2018-05-31T03:06:34.425Z,20.03
2018-05-31T03:09:05.274Z,27.13
2018-05-31T03:11:35.863Z,16.10
2018-05-31T03:14:08.134Z,24.87
2018-05-31T03:16:38.082Z,17.30
2018-05-31T03:19:07.515Z,23.30
2018-05-31T03:21:37.523Z,15.57
2018-05-31T03:24:07.982Z,30.17
2018-05-31T03:26:37.277Z,18.93
2018-05-31T03:29:06.839Z,14.60
2018-05-31T03:31:37.978Z,22.07
2018-05-31T03:34:08.602Z,24.43
2018-05-31T03:36:37.756Z,16.90
2018-05-31T03:39:07.584Z,15.77
2018-05-31T03:41:37.756Z,19.93
2018-05-31T03:44:07.200Z,17.97
2018-05-31T03:46:37.621Z,15.73
2018-05-31T03:49:07.090Z,21.90
2018-05-31T03:51:36.968Z,18.97
2018-05-31T03:54:07.233Z,16.40
2018-05-31T03:56:40.651Z,18.50
2018-05-31T03:59:09.916Z,9.17
2018-05-31T04:01:39.774Z,18.53
2018-05-31T04:04:09.897Z,22.03
2018-05-31T04:06:39.488Z,17.93
2018-05-31T04:09:09.103Z,15.70
2018-05-31T04:11:39.365Z,13.10
2018-05-31T04:14:08.783Z,12.20
2018-05-31T04:16:39.458Z,13.60
2018-05-31T04:19:08.975Z,14.30
2018-05-31T04:21:38.584Z,14.60
2018-05-31T04:24:07.970Z,20.50
2018-05-31T04:26:37.375Z,17.97
2018-05-31T04:29:07.183Z,17.60
2018-05-31T04:31:36.642Z,8.17
2018-05-31T04:34:06.208Z,25.47
2018-05-31T04:36:35.809Z,17.50
2018-05-31T04:39:06.129Z,15.13
2018-05-31T04:41:36.244Z,14.03
2018-05-31T04:44:05.460Z,10.87
2018-05-31T04:46:34.755Z,17.50
2018-05-31T04:49:04.171Z,13.03
2018-05-31T04:51:33.686Z,14.40
2018-05-31T04:54:03.274Z,13.17
2018-05-31T04:56:32.606Z,14.70
2018-05-31T04:59:02.306Z,10.23
2018-05-31T05:01:31.779Z,22.20
2018-05-31T05:04:02.183Z,14.30
2018-05-31T05:06:31.673Z,12.80
2018-05-31T05:09:02.909Z,18.50
2018-05-31T05:11:33.232Z,17.00
2018-05-31T05:14:03.767Z,11.13
2018-05-31T05:16:32.911Z,9.97
2018-05-31T05:19:02.808Z,12.93
2018-05-31T05:21:32.278Z,15.77
2018-05-31T05:24:01.528Z,18.17
2018-05-31T05:26:31.723Z,14.27
2018-05-31T05:29:01.411Z,14.53
2018-05-31T05:31:30.911Z,9.13
2018-05-31T05:34:00.414Z,12.87
2018-05-31T05:36:29.723Z,8.40
2018-05-31T05:38:59.030Z,15.20
2018-05-31T05:41:28.646Z,16.73
2018-05-31T05:43:58.462Z,12.97
2018-05-31T05:46:28.142Z,10.77
2018-05-31T05:48:57.798Z,7.90
2018-05-31T05:51:27.413Z,12.87
2018-05-31T05:53:57.033Z,9.80
2018-05-31T05:56:30.815Z,9.47
2018-05-31T05:59:00.806Z,11.93
2018-05-31T06:01:31.159Z,8.50
2018-05-31T06:04:00.857Z,12.87
2018-05-31T06:06:30.744Z,8.30
2018-05-31T06:09:00.306Z,8.70
2018-05-31T06:11:30.094Z,9.60
2018-05-31T06:13:59.990Z,13.57
2018-05-31T06:16:30.184Z,6.17
2018-05-31T06:18:59.815Z,7.20
2018-05-31T06:21:29.718Z,13.90
2018-05-31T06:24:08.158Z,9.13
2018-05-31T06:26:41.014Z,7.53
2018-05-31T06:29:13.408Z,13.80
2018-05-31T06:31:45.300Z,11.70
2018-05-31T06:34:21.526Z,10.63
2018-05-31T06:36:51.545Z,12.67
2018-05-31T06:39:27.143Z,13.43
2018-05-31T06:42:02.581Z,14.90
2018-05-31T06:44:35.614Z,7.93
2018-05-31T06:47:13.893Z,15.33
2018-05-31T06:49:44.629Z,13.20
2018-05-31T06:52:15.529Z,9.00
2018-05-31T06:54:46.544Z,17.00
2018-05-31T06:57:19.183Z,15.97
2018-05-31T06:59:48.918Z,16.03
2018-05-31T07:02:18.296Z,10.60
2018-05-31T07:04:48.006Z,12.10
2018-05-31T07:07:19.307Z,12.60
2018-05-31T07:09:51.719Z,8.77
2018-05-31T07:12:24.328Z,9.30
2018-05-31T07:14:53.593Z,10.33
2018-05-31T07:17:23.064Z,19.27
2018-05-31T07:19:54.718Z,9.07
2018-05-31T07:22:28.321Z,39.73
2018-05-31T07:25:14.207Z,17.70
2018-05-31T07:27:50.722Z,10.50
2018-05-31T07:30:22.561Z,11.33
2018-05-31T07:32:52.266Z,18.37
2018-05-31T07:35:22.695Z,10.70
2018-05-31T07:38:02.215Z,11.70
2018-05-31T07:40:50.574Z,9.80
2018-05-31T07:43:35.574Z,21.67
2018-05-31T07:46:34.790Z,11.07
2018-05-31T07:49:05.806Z,17.47
2018-05-31T07:51:41.395Z,10.80
2018-05-31T07:54:11.499Z,21.90
2018-05-31T07:56:41.575Z,13.77
2018-05-31T07:59:12.278Z,15.43
2018-05-31T08:01:43.710Z,21.97
2018-05-31T08:04:17.706Z,16.63
2018-05-31T08:06:47.311Z,13.53
2018-05-31T08:09:18.554Z,10.37
2018-05-31T08:11:48.563Z,16.60
2018-05-31T08:14:18.924Z,15.17
2018-05-31T08:16:48.817Z,12.30
2018-05-31T08:19:18.384Z,12.43
2018-05-31T08:21:51.040Z,20.40
2018-05-31T08:24:22.329Z,14.33
2018-05-31T08:26:52.180Z,26.53
2018-05-31T08:29:22.520Z,9.93
2018-05-31T08:31:52.482Z,20.73
2018-05-31T08:34:23.737Z,11.50
2018-05-31T08:36:54.262Z,14.77
2018-05-31T08:39:23.781Z,14.97
2018-05-31T08:41:53.072Z,19.20
2018-05-31T08:44:23.089Z,20.03
2018-05-31T08:46:53.001Z,44.53
2018-05-31T08:49:24.300Z,50.50
2018-05-31T08:51:54.121Z,31.67
2018-05-31T08:54:23.878Z,17.80
2018-05-31T08:56:55.221Z,13.80
2018-05-31T08:59:25.254Z,16.87
2018-05-31T09:01:56.083Z,15.33
2018-05-31T09:04:27.483Z,13.23
2018-05-31T09:06:57.467Z,11.30
2018-05-31T09:09:30.054Z,20.43
2018-05-31T09:12:06.720Z,12.73
2018-05-31T09:14:36.046Z,15.27
2018-05-31T09:17:06.496Z,15.03
2018-05-31T09:19:37.055Z,31.83
2018-05-31T09:22:06.617Z,11.63
2018-05-31T09:24:36.303Z,10.43
2018-05-31T09:27:07.147Z,17.47
2018-05-31T09:29:37.470Z,10.53
2018-05-31T09:32:09.881Z,12.57
2018-05-31T09:34:39.350Z,16.40
2018-05-31T09:37:09.942Z,17.03
2018-05-31T09:39:39.801Z,18.27
2018-05-31T09:42:11.000Z,12.10
2018-05-31T09:44:41.228Z,22.30
2018-05-31T09:47:11.494Z,9.17
2018-05-31T09:49:40.937Z,22.80
2018-05-31T09:52:11.290Z,19.63
2018-05-31T09:54:43.590Z,15.70
2018-05-31T09:57:16.750Z,27.77
2018-05-31T09:59:52.603Z,17.60
2018-05-31T10:02:24.393Z,13.33
2018-05-31T10:05:02.912Z,12.30
2018-05-31T10:07:36.471Z,14.60
2018-05-31T10:10:08.159Z,21.43
2018-05-31T10:12:40.705Z,16.63
2018-05-31T10:15:15.147Z,20.10
2018-05-31T10:17:54.465Z,19.73
2018-05-31T10:20:37.696Z,14.70
2018-05-31T10:23:12.548Z,9.37
2018-05-31T10:25:47.211Z,9.53
2018-05-31T10:28:44.641Z,21.80
2018-05-31T10:31:16.202Z,15.50
2018-05-31T10:34:01.472Z,12.53
2018-05-31T10:36:50.518Z,11.90
2018-05-31T10:39:24.809Z,13.73
2018-05-31T10:41:56.444Z,10.37
2018-05-31T10:44:27.962Z,14.53
2018-05-31T10:47:00.476Z,13.80
2018-05-31T10:49:39.308Z,17.53
2018-05-31T10:52:11.375Z,15.03
2018-05-31T10:54:43.332Z,16.97
2018-05-31T10:57:18.412Z,13.20
2018-05-31T10:59:49.964Z,12.83
2018-05-31T11:02:26.212Z,9.67
2018-05-31T11:04:58.343Z,14.53
2018-05-31T11:07:30.494Z,8.73
2018-05-31T11:10:07.701Z,6.43
2018-05-31T11:12:38.286Z,9.30
2018-05-31T11:15:12.159Z,5.47
2018-05-31T11:17:44.985Z,15.63
2018-05-31T11:20:18.702Z,10.93
2018-05-31T11:22:52.165Z,14.60
2018-05-31T11:25:26.355Z,10.53
2018-05-31T11:27:57.578Z,9.80
2018-05-31T11:30:32.590Z,6.70
2018-05-31T11:33:34.509Z,17.67
2018-05-31T11:36:20.437Z,11.50
2018-05-31T11:42:04.237Z,18.37
2018-05-31T11:44:43.219Z,14.07
2018-05-31T11:47:44.138Z,9.30
2018-05-31T11:50:17.606Z,11.90
2018-05-31T11:52:55.224Z,12.60
2018-05-31T11:55:27.286Z,13.67
2018-05-31T11:58:05.227Z,19.67
2018-05-31T12:00:36.962Z,15.03
2018-05-31T12:03:17.208Z,17.20
2018-05-31T12:05:48.736Z,17.17
2018-05-31T12:08:31.013Z,15.37
2018-05-31T12:14:12.978Z,7.63
2018-05-31T12:17:23.496Z,6.97
2018-05-31T12:20:07.608Z,10.93
2018-05-31T12:22:44.118Z,8.17
2018-05-31T12:25:40.932Z,8.10
2018-05-31T12:28:23.713Z,9.77
2018-05-31T12:30:58.667Z,13.80
2018-05-31T12:33:37.666Z,8.80
2018-05-31T12:36:10.682Z,14.40
2018-05-31T12:39:14.613Z,16.97
2018-05-31T12:41:47.543Z,8.73
2018-05-31T12:44:19.829Z,9.77
2018-05-31T12:46:55.764Z,12.10
2018-05-31T12:49:31.282Z,10.20
2018-05-31T12:52:51.360Z,6.10
2018-05-31T12:55:24.401Z,7.63
2018-05-31T12:58:03.660Z,7.67
2018-05-31T13:00:35.901Z,16.73
2018-05-31T14:04:18.292Z,23.07
2018-05-31T14:06:52.835Z,9.30
2018-05-31T14:09:25.090Z,10.80
2018-05-31T14:11:55.330Z,8.30
2018-05-31T14:14:26.257Z,21.67
2018-05-31T14:16:57.050Z,9.00
2018-05-31T14:19:33.959Z,16.20
2018-05-31T14:22:10.429Z,13.83
2018-05-31T14:24:41.712Z,16.73
2018-05-31T14:27:14.574Z,21.47
2018-05-31T14:29:53.425Z,14.33
2018-05-31T14:32:23.333Z,13.37
2018-05-31T14:34:54.681Z,10.23
2018-05-31T14:37:25.326Z,10.13
2018-05-31T14:39:55.033Z,20.87
2018-05-31T14:42:26.533Z,10.23
2018-05-31T14:44:57.112Z,11.00
2018-05-31T14:47:30.604Z,33.23
2018-05-31T14:50:00.606Z,15.43
2018-05-31T14:52:30.496Z,8.50
2018-05-31T14:55:00.626Z,6.77
2018-05-31T14:57:31.232Z,7.17
2018-05-31T15:00:27.213Z,7.90
2018-05-31T15:03:00.188Z,6.87
2018-05-31T15:05:36.141Z,6.53
2018-05-31T15:08:11.661Z,7.30
2018-05-31T15:10:42.309Z,16.07
2018-05-31T15:13:14.058Z,6.87
2018-05-31T15:15:45.496Z,9.60
2018-05-31T15:18:18.363Z,10.27
2018-05-31T15:20:52.891Z,20.83
2018-05-31T15:23:23.218Z,14.30
2018-05-31T15:26:30.003Z,39.87
2018-05-31T15:29:03.270Z,6.53
2018-05-31T15:31:49.640Z,6.73
2018-05-31T15:34:41.336Z,7.67
2018-05-31T15:37:15.380Z,13.97
2018-05-31T15:39:47.133Z,15.40
2018-05-31T15:42:20.950Z,28.83
2018-05-31T15:44:55.245Z,18.10
2018-05-31T15:47:40.801Z,13.57
2018-05-31T15:50:17.229Z,18.07
2018-05-31T15:52:47.837Z,18.83
2018-05-31T15:55:18.557Z,8.60
2018-05-31T15:57:48.728Z,18.20
2018-05-31T16:00:20.647Z,10.40
2018-05-31T16:02:53.322Z,11.30
2018-05-31T16:05:25.011Z,7.77
2018-05-31T16:07:54.724Z,21.10
2018-05-31T16:10:25.470Z,11.00
2018-05-31T16:12:55.628Z,10.50
2018-05-31T16:15:26.982Z,12.80
2018-05-31T16:17:58.640Z,10.03
2018-05-31T16:20:34.037Z,12.27
2018-05-31T16:25:58.575Z,17.47
2018-05-31T16:28:29.742Z,16.10
2018-05-31T16:31:00.893Z,27.83
2018-05-31T16:33:31.320Z,16.50
2018-05-31T16:36:07.527Z,10.97
2018-05-31T16:38:51.873Z,13.93
2018-05-31T16:41:33.974Z,8.93
2018-05-31T16:44:07.170Z,9.10
2018-05-31T16:46:53.928Z,9.87
2018-05-31T16:49:23.644Z,27.37
2018-05-31T16:51:54.819Z,14.37
2018-05-31T16:54:25.747Z,12.60
2018-05-31T16:57:01.019Z,16.93
2018-05-31T17:02:20.135Z,19.80
2018-05-31T17:04:50.590Z,20.50
2018-05-31T17:07:20.131Z,16.97
2018-05-31T17:09:49.897Z,22.37
2018-05-31T17:12:20.133Z,7.63
2018-05-31T17:14:51.031Z,19.73
2018-05-31T17:17:21.874Z,12.37
2018-05-31T17:19:52.807Z,13.80
2018-05-31T17:22:26.898Z,13.93
2018-05-31T17:24:57.293Z,11.20
2018-05-31T17:31:00.013Z,16.43
2018-05-31T17:33:31.063Z,13.50
2018-05-31T17:36:18.243Z,13.63
2018-05-31T17:38:58.117Z,14.37
2018-05-31T17:41:30.100Z,14.50
2018-05-31T17:44:06.383Z,13.27
2018-05-31T17:46:56.533Z,17.43
2018-05-31T17:49:39.584Z,10.47
2018-05-31T17:52:16.685Z,19.27
2018-05-31T17:54:48.946Z,10.87
2018-05-31T17:57:19.864Z,13.90
2018-05-31T18:00:06.931Z,12.47
2018-05-31T18:02:38.098Z,11.87
2018-05-31T18:05:07.605Z,25.13
2018-05-31T18:07:44.515Z,14.87
2018-05-31T18:10:15.960Z,22.93
2018-05-31T18:12:46.161Z,22.13
2018-05-31T18:15:17.561Z,21.17
2018-05-31T18:17:49.115Z,12.00
2018-05-31T18:20:19.258Z,28.27
2018-05-31T18:22:50.262Z,16.87
2018-05-31T18:25:20.005Z,15.93
2018-05-31T18:27:50.907Z,12.97
2018-05-31T18:30:20.983Z,17.37
2018-05-31T18:32:57.146Z,17.30
2018-05-31T18:35:37.069Z,13.70
2018-05-31T18:38:10.302Z,18.30
2018-05-31T18:40:42.055Z,20.40
2018-05-31T18:43:34.201Z,21.97
2018-05-31T18:46:14.615Z,19.57
2018-05-31T18:48:48.327Z,16.03
2018-05-31T18:51:22.464Z,23.93
2018-05-31T18:53:56.556Z,22.93
2018-05-31T18:56:39.269Z,20.50
2018-05-31T18:59:17.561Z,20.30
2018-05-31T19:01:48.688Z,19.00
2018-05-31T19:04:19.222Z,29.30
2018-05-31T19:06:50.328Z,20.73
2018-05-31T19:09:26.590Z,35.13
2018-05-31T19:11:56.565Z,33.93
2018-05-31T19:14:26.994Z,24.00
2018-05-31T19:16:56.886Z,33.47
2018-05-31T19:20:02.925Z,71.10
2018-05-31T19:22:33.186Z,35.33
2018-05-31T19:25:08.253Z,19.17
2018-05-31T19:31:19.531Z,24.03
2018-05-31T19:33:49.788Z,28.58
2018-05-31T19:37:27.031Z,21.30
2018-05-31T19:39:57.193Z,25.20
2018-05-31T19:42:32.503Z,29.10
2018-05-31T19:45:02.809Z,23.20
2018-05-31T19:47:33.307Z,26.53
2018-05-31T19:50:03.080Z,25.60
2018-05-31T19:52:38.133Z,21.27
2018-05-31T19:55:10.300Z,17.70
2018-05-31T19:57:44.658Z,25.93
2018-05-31T20:02:22.201Z,25.97
2018-05-31T20:04:52.696Z,19.57
2018-05-31T20:07:22.741Z,23.93
2018-05-31T20:09:53.061Z,29.43
2018-05-31T20:12:23.423Z,38.87
2018-05-31T20:14:54.608Z,35.57
2018-05-31T20:20:21.073Z,22.20
2018-05-31T20:22:53.944Z,35.33
2018-05-31T20:25:25.914Z,36.73
2018-05-31T20:27:56.161Z,37.27
2018-05-31T20:30:26.309Z,26.37
2018-05-31T20:32:57.116Z,28.87
2018-05-31T20:35:28.773Z,30.60
2018-05-31T20:38:08.010Z,34.10
2018-05-31T20:40:40.610Z,29.93
2018-05-31T20:43:11.595Z,28.83
2018-05-31T20:45:41.888Z,35.80
2018-05-31T20:48:11.984Z,41.53
2018-05-31T20:50:42.461Z,32.57
2018-05-31T20:53:12.561Z,35.97
2018-05-31T20:55:42.752Z,31.07
2018-05-31T20:58:21.495Z,53.17
2018-05-31T21:04:54.824Z,51.17
2018-05-31T21:07:25.529Z,32.47
2018-05-31T21:09:59.737Z,31.73
2018-05-31T21:12:29.557Z,33.57
2018-05-31T21:15:03.212Z,37.67
2018-05-31T21:17:33.779Z,45.27
2018-05-31T21:20:04.580Z,41.40
2018-05-31T21:22:34.278Z,37.23
2018-05-31T21:25:05.715Z,37.10
2018-05-31T21:27:37.903Z,35.73
2018-05-31T21:30:08.373Z,36.90
2018-05-31T21:32:39.302Z,37.10
2018-05-31T21:35:11.688Z,41.80
2018-05-31T21:37:54.349Z,41.10
2018-05-31T21:40:37.389Z,57.47
2018-05-31T21:43:07.537Z,46.00
2018-05-31T21:45:37.381Z,46.17
2018-05-31T21:48:08.558Z,34.53
2018-05-31T21:50:38.763Z,37.83
2018-05-31T21:53:13.180Z,41.57
2018-05-31T21:55:46.926Z,87.93
2018-05-31T21:58:16.729Z,61.30
2018-05-31T22:00:50.978Z,42.37
2018-05-31T22:03:20.627Z,43.90
2018-05-31T22:05:51.357Z,27.20
2018-05-31T22:08:20.986Z,34.97
2018-05-31T22:10:51.110Z,38.63
2018-05-31T22:13:20.947Z,32.20
2018-05-31T22:15:50.599Z,42.87
2018-05-31T22:18:20.426Z,33.97
2018-05-31T22:20:51.350Z,25.40
2018-05-31T22:23:21.009Z,26.07
2018-05-31T22:25:51.157Z,32.47
2018-05-31T22:28:26.688Z,47.40
2018-05-31T22:31:04.432Z,32.93
2018-05-31T22:33:34.354Z,28.13
2018-05-31T22:36:04.925Z,29.53
2018-05-31T22:38:39.155Z,34.50
2018-05-31T22:41:09.189Z,28.67
2018-05-31T22:43:39.721Z,34.63
2018-05-31T22:46:09.940Z,34.90
2018-05-31T22:48:39.492Z,39.90
2018-05-31T22:51:09.032Z,39.03
2018-05-31T22:53:38.590Z,46.00
2018-05-31T22:56:10.893Z,33.20
2018-05-31T22:58:43.940Z,42.17
2018-05-31T23:01:14.698Z,41.57
2018-05-31T23:03:44.083Z,41.77
2018-05-31T23:06:15.262Z,43.23
2018-05-31T23:08:44.848Z,50.53
2018-05-31T23:11:19.197Z,39.30
2018-05-31T23:13:51.363Z,37.10
2018-05-31T23:16:23.618Z,39.30
2018-05-31T23:18:53.613Z,40.67
2018-05-31T23:21:23.015Z,46.10
2018-05-31T23:23:53.400Z,50.87
2018-05-31T23:26:23.598Z,39.60
2018-05-31T23:28:53.356Z,34.60
2018-05-31T23:31:23.063Z,39.87
2018-05-31T23:33:52.337Z,39.50
2018-05-31T23:36:22.171Z,37.50
2018-05-31T23:38:51.856Z,45.73
2018-05-31T23:41:21.207Z,36.00
2018-05-31T23:43:50.841Z,38.77
2018-05-31T23:46:21.004Z,38.93
2018-05-31T23:48:50.773Z,44.90
2018-05-31T23:51:20.355Z,91.20
2018-05-31T23:53:51.178Z,40.20
2018-05-31T23:56:20.706Z,62.53
2018-05-31T23:58:51.015Z,41.00
